createdAt,value
2022-09-26T00:01:25.500Z,100144.91
2022-09-26T00:06:31.227Z,100145.03
2022-09-26T00:11:37.056Z,100125.47
2022-09-26T00:16:43.289Z,100126.81
2022-09-26T00:21:49.536Z,100127.42
2022-09-26T00:26:55.020Z,100123.31
2022-09-26T00:32:00.483Z,100119.52
2022-09-26T00:37:05.936Z,100117.69
2022-09-26T00:42:17.494Z,100119.77
2022-09-26T00:47:54.981Z,100114.28
2022-09-26T00:53:03.895Z,100110.86
2022-09-26T00:58:15.246Z,100097.91
2022-09-26T01:03:23.058Z,100107.56
2022-09-26T01:08:32.467Z,100107.11
2022-09-26T01:13:39.296Z,100108.55
2022-09-26T01:18:45.825Z,100108.19
2022-09-26T01:24:22.517Z,100112.59
2022-09-26T01:29:50.508Z,100109.32
2022-09-26T01:35:13.432Z,100103.58
2022-09-26T01:40:38.286Z,100101.14
2022-09-26T01:45:59.278Z,100104.31
2022-09-26T01:51:07.819Z,100101.50
2022-09-26T01:56:17.560Z,100102.97
2022-09-26T02:01:26.462Z,100101.75
2022-09-26T02:06:34.944Z,100091.73
2022-09-26T02:11:44.004Z,100083.21
2022-09-26T02:16:53.619Z,100081.87
2022-09-26T02:22:01.559Z,100073.44
2022-09-26T02:27:07.656Z,100070.30
2022-09-26T02:32:19.460Z,100061.37
2022-09-26T02:37:28.286Z,100053.31
2022-09-26T02:42:52.155Z,100055.88
2022-09-26T02:48:16.828Z,100044.16
2022-09-26T02:53:44.860Z,100036.98
2022-09-26T02:59:12.945Z,100034.05
2022-09-26T03:04:43.961Z,100033.58
2022-09-26T03:09:52.057Z,100026.73
2022-09-26T03:14:59.895Z,100024.19
2022-09-26T03:20:11.328Z,100023.20
2022-09-26T03:25:23.298Z,100021.47
2022-09-26T03:30:31.388Z,100017.06
2022-09-26T03:35:41.413Z,100009.37
2022-09-26T03:40:47.407Z,100019.72
2022-09-26T03:46:08.963Z,100018.73
2022-09-26T03:51:15.657Z,100012.98
2022-09-26T03:56:23.563Z,100014.68
2022-09-26T04:01:29.131Z,100008.44
2022-09-26T04:06:35.506Z,100003.05
2022-09-26T04:11:41.078Z,99997.81
2022-09-26T04:16:48.683Z,100002.44
2022-09-26T04:21:55.918Z,99998.64
2022-09-26T04:27:01.886Z,100002.52
2022-09-26T04:32:07.838Z,100001.04
2022-09-26T04:37:19.425Z,100005.28
2022-09-26T04:42:25.411Z,100003.58
2022-09-26T04:47:31.291Z,99999.30
2022-09-26T04:52:55.049Z,100009.39
2022-09-26T04:58:02.445Z,100006.67
2022-09-26T05:03:09.372Z,100003.39
2022-09-26T05:08:15.818Z,100003.39
2022-09-26T05:13:22.308Z,99998.04
2022-09-26T05:18:28.647Z,100002.17
2022-09-26T05:23:53.699Z,99997.92
2022-09-26T05:29:08.046Z,100000.49
2022-09-26T05:34:19.428Z,100000.13
2022-09-26T05:39:42.628Z,100005.37
2022-09-26T05:44:49.077Z,100000.16
2022-09-26T05:49:54.883Z,100000.78
2022-09-26T05:55:01.886Z,99990.44
2022-09-26T06:00:26.395Z,99998.95
2022-09-26T06:05:33.842Z,100000.41
2022-09-26T06:10:50.096Z,99994.08
2022-09-26T06:15:57.434Z,99995.56
2022-09-26T06:21:09.373Z,99995.05
2022-09-26T06:26:24.902Z,99997.02
2022-09-26T06:31:31.873Z,99985.95
2022-09-26T06:36:50.950Z,99985.36
2022-09-26T06:41:56.706Z,99979.39
2022-09-26T06:47:06.578Z,99985.75
2022-09-26T06:52:14.231Z,99979.65
2022-09-26T06:57:21.297Z,99968.34
2022-09-26T07:02:28.023Z,99970.55
2022-09-26T07:07:46.277Z,99977.49
2022-09-26T07:12:53.594Z,99973.72
2022-09-26T07:18:01.168Z,99976.55
2022-09-26T07:23:10.794Z,99972.06
2022-09-26T07:28:18.067Z,99966.72
2022-09-26T07:33:27.785Z,99963.03
2022-09-26T07:38:35.278Z,99957.27
2022-09-26T07:44:34.652Z,99960.77
2022-09-26T07:49:09.045Z,99960.16
2022-09-26T07:54:32.345Z,99966.20
2022-09-26T07:59:50.139Z,99966.99
2022-09-26T08:05:00.881Z,99965.35
2022-09-26T08:10:06.814Z,99969.31
2022-09-26T08:15:30.554Z,99977.21
2022-09-26T08:20:37.932Z,99967.84
2022-09-26T08:25:43.851Z,99973.34
2022-09-26T08:31:05.065Z,99971.91
2022-09-26T08:36:12.842Z,99970.72
2022-09-26T08:41:42.273Z,99965.59
2022-09-26T08:47:15.295Z,99955.86
2022-09-26T08:52:28.510Z,99953.95
2022-09-26T08:57:43.381Z,99946.22
2022-09-26T09:03:00.642Z,99941.63
2022-09-26T09:08:09.439Z,99942.39
2022-09-26T09:13:25.398Z,99935.81
2022-09-26T09:18:57.986Z,99923.03
2022-09-26T09:24:24.085Z,99921.11
2022-09-26T09:29:41.744Z,99910.93
2022-09-26T09:35:05.316Z,99906.73
2022-09-26T09:40:34.412Z,99908.30
2022-09-26T09:45:43.192Z,99908.73
2022-09-26T09:51:08.144Z,99904.66
2022-09-26T09:56:22.871Z,99899.06
2022-09-26T10:01:32.522Z,99899.77
2022-09-26T10:06:46.434Z,99893.16
2022-09-26T10:11:52.579Z,99893.68
2022-09-26T10:17:18.014Z,99887.81
2022-09-26T10:22:33.342Z,99890.81
2022-09-26T10:27:41.275Z,99867.95
2022-09-26T10:32:55.428Z,99861.02
2022-09-26T10:38:04.348Z,99863.78
2022-09-26T10:43:29.026Z,99860.16
2022-09-26T10:54:27.020Z,99850.50
2022-09-26T10:59:35.757Z,99847.83
2022-09-26T11:05:03.014Z,99840.57
2022-09-26T11:10:16.072Z,99830.41
2022-09-26T11:15:24.125Z,99831.06
2022-09-26T11:20:51.462Z,99829.36
2022-09-26T11:26:18.390Z,99820.01
2022-09-26T11:31:29.751Z,99817.37
2022-09-26T11:36:56.200Z,99818.07
2022-09-26T11:42:17.320Z,99807.11
2022-09-26T11:47:42.741Z,99801.72
2022-09-26T11:52:55.585Z,99790.64
2022-09-26T11:58:14.941Z,99792.61
2022-09-26T12:03:27.989Z,99782.53
2022-09-26T12:08:53.577Z,99778.50
2022-09-26T12:14:05.144Z,99766.32
2022-09-26T12:19:38.103Z,99760.86
2022-09-26T12:24:52.558Z,99755.65
2022-09-26T12:30:19.143Z,99763.43
2022-09-26T12:35:50.270Z,99755.13
2022-09-26T12:40:58.892Z,99747.87
2022-09-26T12:46:22.095Z,99746.50
2022-09-26T12:51:40.268Z,99737.54
2022-09-26T12:57:07.762Z,99736.54
2022-09-26T13:02:17.301Z,99727.07
2022-09-26T13:07:39.208Z,99723.66
2022-09-26T13:13:14.505Z,99722.49
2022-09-26T13:18:26.508Z,99721.83
2022-09-26T13:23:42.321Z,99721.48
2022-09-26T13:29:12.837Z,99717.59
2022-09-26T13:34:06.709Z,99706.09
2022-09-26T13:39:18.078Z,99701.45
2022-09-26T13:44:46.077Z,99705.42
2022-09-26T13:50:16.129Z,99699.34
2022-09-26T13:55:22.852Z,99685.43
2022-09-26T14:00:40.969Z,99684.25
2022-09-26T14:05:50.827Z,99676.30
2022-09-26T14:10:59.255Z,99672.92
2022-09-26T14:16:17.315Z,99673.23
2022-09-26T14:21:43.886Z,99662.65
2022-09-26T14:26:54.724Z,99654.16
2022-09-26T14:32:12.132Z,99652.30
2022-09-26T14:37:35.276Z,99651.33
2022-09-26T14:42:46.551Z,99657.95
2022-09-26T14:47:57.829Z,99643.91
2022-09-26T14:53:27.713Z,99647.47
2022-09-26T14:58:39.163Z,99634.25
2022-09-26T15:03:46.331Z,99631.37
2022-09-26T15:08:53.656Z,99629.17
2022-09-26T15:14:01.748Z,99626.28
2022-09-26T15:19:15.945Z,99621.41
2022-09-26T15:24:30.152Z,99616.48
2022-09-26T15:29:37.136Z,99607.84
2022-09-26T15:34:42.530Z,99611.22
2022-09-26T15:39:48.101Z,99603.78
2022-09-26T15:44:59.400Z,99597.53
2022-09-26T15:50:14.425Z,99596.66
2022-09-26T15:55:25.728Z,99588.17
2022-09-26T16:00:37.139Z,99590.75
2022-09-26T16:05:45.941Z,99586.66
2022-09-26T16:11:00.651Z,99585.81
2022-09-26T16:16:09.246Z,99581.55
2022-09-26T16:21:26.939Z,99570.98
2022-09-26T16:26:40.263Z,99576.72
2022-09-26T16:31:48.884Z,99568.20
2022-09-26T16:36:55.100Z,99559.69
2022-09-26T16:42:04.894Z,99560.17
2022-09-26T16:47:44.716Z,99549.81
2022-09-26T16:52:50.113Z,99558.69
2022-09-26T16:58:04.245Z,99555.36
2022-09-26T17:03:25.199Z,99545.69
2022-09-26T17:08:30.581Z,99554.53
2022-09-26T17:13:38.736Z,99549.41
2022-09-26T17:18:45.019Z,99544.59
2022-09-26T17:23:50.741Z,99544.51
2022-09-26T17:28:57.938Z,99547.55
2022-09-26T17:34:03.970Z,99542.62
2022-09-26T17:39:12.431Z,99537.88
2022-09-26T17:44:19.505Z,99541.38
2022-09-26T17:49:28.421Z,99531.88
2022-09-26T17:54:40.955Z,99529.64
2022-09-26T17:59:46.573Z,99526.59
2022-09-26T18:04:55.739Z,99522.00
2022-09-26T18:10:01.191Z,99516.94
2022-09-26T18:15:07.453Z,99514.23
2022-09-26T18:20:12.840Z,99512.73
2022-09-26T18:25:21.929Z,99513.52
2022-09-26T18:30:27.866Z,99511.88
2022-09-26T18:35:33.407Z,99512.36
2022-09-26T18:40:47.636Z,99510.61
2022-09-26T18:45:53.788Z,99508.36
2022-09-26T18:51:00.019Z,99499.38
2022-09-26T18:56:24.336Z,99499.35
2022-09-26T19:01:37.698Z,99490.52
2022-09-26T19:06:45.398Z,99496.84
2022-09-26T19:11:50.776Z,99493.59
2022-09-26T19:16:57.512Z,99486.93
2022-09-26T19:22:07.255Z,99487.02
2022-09-26T19:27:21.976Z,99489.01
2022-09-26T19:32:36.402Z,99483.54
2022-09-26T19:37:42.040Z,99481.81
2022-09-26T19:42:48.084Z,99477.44
2022-09-26T19:47:55.990Z,99467.46
2022-09-26T19:53:03.448Z,99468.28
2022-09-26T19:58:17.428Z,99464.47
2022-09-26T20:03:31.930Z,99461.37
2022-09-26T20:08:37.340Z,99457.30
2022-09-26T20:14:00.871Z,99461.63
2022-09-26T20:19:08.296Z,99452.44
2022-09-26T20:24:18.439Z,99456.26
2022-09-26T20:29:24.008Z,99448.12
2022-09-26T20:34:30.276Z,99449.72
2022-09-26T20:39:35.661Z,99434.50
2022-09-26T20:44:41.647Z,99428.42
2022-09-26T20:49:55.818Z,99424.14
2022-09-26T20:55:01.231Z,99419.69
2022-09-26T21:00:07.711Z,99426.05
2022-09-26T21:05:22.839Z,99414.73
2022-09-26T21:10:34.828Z,99423.09
2022-09-26T21:15:42.019Z,99420.25
2022-09-26T21:20:47.470Z,99415.63
2022-09-26T21:26:21.888Z,99408.75
2022-09-26T21:31:30.592Z,99397.08
2022-09-26T21:36:39.032Z,99391.28
2022-09-26T21:41:46.042Z,99391.84
2022-09-26T21:46:52.205Z,99388.45
2022-09-26T21:52:03.492Z,99380.34
2022-09-26T21:57:14.749Z,99379.78
2022-09-26T22:02:21.004Z,99376.14
2022-09-26T22:07:26.476Z,99368.36
2022-09-26T22:12:32.036Z,99360.72
2022-09-26T22:17:37.496Z,99349.72
2022-09-26T22:22:42.891Z,99341.41
2022-09-26T22:27:48.273Z,99338.72
2022-09-26T22:32:53.721Z,99333.70
2022-09-26T22:37:59.113Z,99330.05
2022-09-26T22:43:04.685Z,99317.81
2022-09-26T22:48:10.144Z,99307.20
2022-09-26T22:53:15.530Z,99305.58
2022-09-26T22:58:20.929Z,99302.10
2022-09-26T23:03:26.314Z,99297.05
2022-09-26T23:08:32.644Z,99295.20
2022-09-26T23:13:39.327Z,99286.29
2022-09-26T23:18:45.745Z,99282.61
2022-09-26T23:23:55.016Z,99269.64
2022-09-26T23:29:01.378Z,99266.00
2022-09-26T23:34:06.973Z,99257.81
2022-09-26T23:39:12.433Z,99257.31
2022-09-26T23:44:17.807Z,99251.09
2022-09-26T23:49:23.189Z,99240.48
2022-09-26T23:54:29.605Z,99239.25
2022-09-26T23:59:34.983Z,99234.52
